Time;durP1;ratioP1;P1;durP2;ratioP2;P2;SDS_P1;SDS_P2;PMS_P1;PMS_P2;Temp;Humidity;BMP_temperature;BMP_pressure;BME280_temperature;BME280_humidity;BME280_pressure;Samples;Min_cycle;Max_cycle;Signal;HPM_P1;HPM_P2
2021/01/10 00:00:10;;;;;;;42.93;19.37;;;0.20;99.90;;;;;;4363203;33;20420;-71
2021/01/10 00:02:39;;;;;;;46.50;20.90;;;0.20;99.90;;;;;;4363667;33;20386;-70
2021/01/10 00:05:08;;;;;;;43.47;19.03;;;0.30;99.90;;;;;;4363655;33;20528;-71
2021/01/10 00:07:35;;;;;;;47.63;20.83;;;0.30;99.90;;;;;;4363734;33;20183;-71
2021/01/10 00:10:06;;;;;;;45.90;20.50;;;0.30;99.90;;;;;;4363725;33;20137;-71
2021/01/10 00:12:32;;;;;;;45.30;20.10;;;0.30;99.90;;;;;;4364624;33;20144;-71
2021/01/10 00:14:59;;;;;;;46.20;20.10;;;0.30;99.90;;;;;;4365170;33;20223;-70
2021/01/10 00:17:25;;;;;;;46.70;19.63;;;0.20;99.90;;;;;;4364041;33;20536;-70
2021/01/10 00:19:52;;;;;;;43.40;19.93;;;0.20;99.90;;;;;;4364027;33;20144;-71
2021/01/10 00:22:23;;;;;;;46.13;20.23;;;0.40;99.90;;;;;;4363862;33;20194;-70
2021/01/10 00:24:50;;;;;;;45.47;19.23;;;0.30;99.90;;;;;;4363780;33;20188;-71
2021/01/10 00:27:18;;;;;;;44.90;20.13;;;0.30;99.90;;;;;;4363643;33;20144;-71
2021/01/10 00:29:47;;;;;;;44.43;19.60;;;0.30;99.90;;;;;;4363612;33;20143;-71
2021/01/10 00:32:15;;;;;;;46.73;19.80;;;0.30;99.90;;;;;;4365353;33;20148;-71
2021/01/10 00:34:42;;;;;;;45.30;19.30;;;0.20;99.90;;;;;;4363649;33;20167;-70
2021/01/10 00:37:17;;;;;;;44.53;20.20;;;0.20;99.90;;;;;;4364022;33;20361;-71
2021/01/10 00:39:48;;;;;;;43.13;19.70;;;0.30;99.90;;;;;;4365583;32;20147;-71
2021/01/10 00:42:16;;;;;;;41.70;19.10;;;0.30;99.90;;;;;;4368024;32;20148;-71
2021/01/10 00:44:48;;;;;;;42.03;19.97;;;0.30;99.90;;;;;;4366226;32;20137;-71
2021/01/10 00:47:19;;;;;;;40.70;18.97;;;0.30;99.90;;;;;;4367461;32;20132;-71
2021/01/10 00:49:46;;;;;;;43.53;19.70;;;0.40;99.90;;;;;;4366186;32;20156;-71
2021/01/10 00:52:14;;;;;;;44.73;19.57;;;0.40;99.90;;;;;;4365952;32;20180;-71
2021/01/10 00:54:40;;;;;;;43.20;19.70;;;0.30;99.90;;;;;;4365983;32;20435;-70
2021/01/10 00:57:06;;;;;;;44.77;19.90;;;0.40;99.90;;;;;;4365981;32;20160;-70
2021/01/10 00:59:33;;;;;;;43.67;19.00;;;0.30;99.90;;;;;;4366067;32;20137;-71
2021/01/10 01:02:01;;;;;;;48.20;19.83;;;0.40;99.90;;;;;;4366083;32;20136;-70
2021/01/10 01:04:28;;;;;;;41.70;19.10;;;0.40;99.90;;;;;;4367386;32;20160;-71
2021/01/10 01:06:54;;;;;;;43.50;19.43;;;0.20;99.90;;;;;;4367343;32;20133;-70
2021/01/10 01:09:21;;;;;;;47.13;19.30;;;0.20;99.90;;;;;;4365791;32;20219;-71
2021/01/10 01:11:47;;;;;;;41.10;19.57;;;0.30;99.90;;;;;;4365728;32;20136;-70
2021/01/10 01:14:15;;;;;;;46.63;19.63;;;0.30;99.90;;;;;;4367272;32;20532;-70
2021/01/10 01:16:42;;;;;;;44.07;19.53;;;0.30;99.90;;;;;;4367197;32;20342;-71
2021/01/10 01:19:10;;;;;;;42.90;19.37;;;0.30;99.90;;;;;;4365694;32;20210;-70
2021/01/10 01:21:38;;;;;;;42.67;19.47;;;0.40;99.90;;;;;;4367152;32;20462;-70
2021/01/10 01:24:05;;;;;;;43.23;18.87;;;0.40;99.90;;;;;;4366335;32;20129;-71
2021/01/10 01:26:31;;;;;;;42.10;19.03;;;0.40;99.90;;;;;;4365534;32;20167;-70
2021/01/10 01:28:58;;;;;;;43.70;19.00;;;0.50;99.90;;;;;;4364948;32;20364;-70
2021/01/10 01:31:26;;;;;;;44.33;19.43;;;0.50;99.90;;;;;;4365326;33;20219;-70
2021/01/10 01:33:54;;;;;;;45.50;19.27;;;0.50;99.90;;;;;;4364678;32;20151;-70
2021/01/10 01:36:24;;;;;;;44.60;19.50;;;0.50;99.90;;;;;;4365553;32;20187;-69
2021/01/10 01:39:08;;;;;;;44.37;19.30;;;0.40;99.90;;;;;;4365416;32;20242;-70
2021/01/10 01:41:37;;;;;;;47.87;19.63;;;0.30;99.90;;;;;;4366725;32;20147;-70
2021/01/10 01:44:04;;;;;;;43.60;18.83;;;0.30;99.90;;;;;;4366463;32;20147;-70
2021/01/10 01:46:34;;;;;;;45.70;20.07;;;0.40;99.90;;;;;;4366320;32;20159;-70
2021/01/10 01:49:07;;;;;;;43.67;18.43;;;0.50;99.90;;;;;;4366949;32;20545;-70
2021/01/10 01:51:35;;;;;;;44.37;19.07;;;0.50;99.90;;;;;;4365223;32;20373;-70
2021/01/10 01:54:04;;;;;;;44.57;19.20;;;0.60;99.90;;;;;;4364922;32;20409;-70
2021/01/10 01:56:30;;;;;;;48.43;20.27;;;0.60;99.90;;;;;;4364660;32;20210;-70
2021/01/10 01:59:03;;;;;;;46.77;19.40;;;0.60;99.90;;;;;;4364937;32;20136;-70
2021/01/10 02:01:31;;;;;;;43.00;19.43;;;0.60;99.90;;;;;;4364914;32;20517;-70
2021/01/10 02:04:20;;;;;;;45.70;19.30;;;0.60;99.90;;;;;;4364772;32;20187;-71
2021/01/10 02:07:18;;;;;;;44.73;18.97;;;0.60;99.90;;;;;;4366166;32;20229;-71
2021/01/10 02:09:56;;;;;;;45.90;20.13;;;0.50;99.90;;;;;;4365512;32;20136;-70
2021/01/10 02:12:25;;;;;;;54.07;21.00;;;0.40;99.90;;;;;;4365020;32;20167;-70
2021/01/10 02:15:01;;;;;;;47.77;19.93;;;0.50;99.90;;;;;;4366430;32;20194;-70
2021/01/10 02:17:29;;;;;;;48.03;19.37;;;0.50;99.90;;;;;;4366300;32;20176;-71
2021/01/10 02:20:08;;;;;;;50.03;20.37;;;0.60;99.90;;;;;;4365856;32;20211;-70
2021/01/10 02:23:16;;;;;;;51.57;21.27;;;0.70;99.90;;;;;;4365056;32;20187;-71
2021/01/10 02:25:45;;;;;;;48.67;19.47;;;0.50;99.90;;;;;;4364813;32;20215;-71
2021/01/10 02:28:13;;;;;;;51.27;20.37;;;0.40;99.90;;;;;;4366666;32;20235;-70
2021/01/10 02:30:42;;;;;;;52.27;20.33;;;0.40;99.90;;;;;;4364785;32;20175;-70
2021/01/10 02:33:41;;;;;;;54.07;21.30;;;0.40;99.90;;;;;;4364516;32;20151;-70
2021/01/10 02:36:31;;;;;;;50.60;20.17;;;0.50;99.90;;;;;;4364479;32;20149;-70
2021/01/10 02:39:07;;;;;;;57.20;20.37;;;0.50;99.90;;;;;;4364943;32;20137;-70
2021/01/10 02:41:34;;;;;;;53.43;19.80;;;0.60;99.90;;;;;;4366237;32;20146;-71
2021/01/10 02:44:07;;;;;;;50.83;19.60;;;0.50;99.90;;;;;;4364892;32;20141;-70
2021/01/10 02:46:35;;;;;;;56.67;20.77;;;0.60;99.90;;;;;;4365729;32;20399;-71
2021/01/10 02:49:02;;;;;;;58.50;21.40;;;0.50;99.90;;;;;;4364300;32;20150;-71
2021/01/10 02:51:29;;;;;;;64.33;22.17;;;0.50;99.90;;;;;;4364153;32;20136;-71
2021/01/10 02:53:55;;;;;;;53.87;21.00;;;0.50;99.90;;;;;;4364306;32;20193;-71
2021/01/10 02:56:22;;;;;;;57.13;20.30;;;0.70;99.90;;;;;;4365650;32;20414;-70
2021/01/10 02:58:54;;;;;;;55.93;20.77;;;0.60;99.90;;;;;;4365514;32;20183;-71
2021/01/10 03:01:23;;;;;;;56.00;20.97;;;0.70;99.90;;;;;;4363996;32;20179;-70
2021/01/10 03:03:51;;;;;;;59.07;20.90;;;0.60;99.90;;;;;;4363883;32;20158;-71
2021/01/10 03:06:17;;;;;;;60.97;21.90;;;0.70;99.90;;;;;;4364171;32;20405;-71
2021/01/10 03:08:44;;;;;;;67.60;22.63;;;0.70;99.90;;;;;;4364718;32;20137;-71
2021/01/10 03:11:10;;;;;;;61.43;21.27;;;0.50;99.90;;;;;;4364399;33;20202;-71
2021/01/10 03:13:37;;;;;;;62.20;22.07;;;0.50;99.90;;;;;;4365607;32;20163;-71
2021/01/10 03:16:04;;;;;;;65.50;21.60;;;0.50;99.90;;;;;;4364398;32;20136;-71
2021/01/10 03:18:31;;;;;;;61.37;22.23;;;0.50;99.90;;;;;;4363840;32;20402;-71
2021/01/10 03:20:58;;;;;;;60.83;20.53;;;0.50;99.90;;;;;;4363402;32;20228;-72
2021/01/10 03:23:24;;;;;;;66.87;21.60;;;0.40;99.90;;;;;;4365457;32;20136;-71
2021/01/10 03:25:51;;;;;;;68.40;22.70;;;0.40;99.90;;;;;;4363987;32;20330;-71
2021/01/10 03:28:17;;;;;;;55.70;20.87;;;0.40;99.90;;;;;;4363780;32;20171;-71
2021/01/10 03:30:44;;;;;;;65.23;21.43;;;0.50;99.90;;;;;;4363482;32;20178;-71
2021/01/10 03:33:10;;;;;;;62.17;21.47;;;0.50;99.90;;;;;;4363856;32;20175;-70
2021/01/10 03:35:39;;;;;;;62.97;22.17;;;0.60;99.90;;;;;;4364929;33;20211;-71
2021/01/10 03:38:06;;;;;;;68.27;21.50;;;0.50;99.90;;;;;;4365260;33;20231;-70
2021/01/10 03:40:33;;;;;;;66.20;21.13;;;0.40;99.90;;;;;;4365160;33;20134;-70
2021/01/10 03:43:00;;;;;;;73.47;22.80;;;0.50;99.90;;;;;;4364010;33;20205;-71
2021/01/10 03:45:27;;;;;;;70.00;22.87;;;0.50;99.90;;;;;;4363727;33;20140;-70
2021/01/10 03:47:54;;;;;;;71.73;21.87;;;0.50;99.90;;;;;;4363827;33;20455;-70
2021/01/10 03:50:21;;;;;;;68.77;21.70;;;0.50;99.90;;;;;;4363861;33;20160;-70
2021/01/10 03:52:47;;;;;;;65.97;21.67;;;0.50;99.90;;;;;;4363442;33;20151;-71
2021/01/10 03:55:14;;;;;;;71.47;22.73;;;0.50;99.90;;;;;;4364661;33;20190;-71
2021/01/10 03:57:40;;;;;;;70.27;23.40;;;0.50;99.90;;;;;;4363897;33;20160;-70
2021/01/10 04:00:09;;;;;;;69.93;21.97;;;0.50;99.90;;;;;;4365185;33;20140;-70
2021/01/10 04:02:36;;;;;;;68.00;22.77;;;0.50;99.90;;;;;;4363879;33;20457;-71
2021/01/10 04:05:05;;;;;;;68.17;21.37;;;0.60;99.90;;;;;;4363141;33;20518;-71
2021/01/10 04:07:31;;;;;;;65.97;22.40;;;0.60;99.90;;;;;;4364599;33;20381;-71
2021/01/10 04:09:58;;;;;;;71.30;22.53;;;0.50;99.90;;;;;;4365193;33;20140;-71
2021/01/10 04:12:25;;;;;;;69.43;21.93;;;0.40;99.90;;;;;;4364995;32;20140;-71
2021/01/10 04:14:57;;;;;;;71.60;22.17;;;0.50;99.90;;;;;;4365889;33;20179;-71
2021/01/10 04:17:25;;;;;;;66.50;21.63;;;0.40;99.90;;;;;;4367074;32;20146;-72
2021/01/10 04:19:53;;;;;;;66.33;22.53;;;0.40;99.90;;;;;;4366541;32;20139;-71
2021/01/10 04:22:21;;;;;;;72.50;22.60;;;0.50;99.90;;;;;;4366637;32;20203;-72
2021/01/10 04:24:50;;;;;;;72.90;23.63;;;0.60;99.90;;;;;;4367948;32;20221;-71
2021/01/10 04:27:16;;;;;;;71.47;22.93;;;0.60;99.90;;;;;;4367806;32;20477;-71
2021/01/10 04:29:43;;;;;;;72.67;22.07;;;0.50;99.90;;;;;;4367115;32;20404;-72
2021/01/10 04:32:09;;;;;;;70.50;22.37;;;0.60;99.90;;;;;;4366042;32;20218;-71
2021/01/10 04:34:37;;;;;;;61.27;20.70;;;0.60;99.90;;;;;;4366081;32;20221;-71
2021/01/10 04:37:03;;;;;;;65.37;22.00;;;0.60;99.90;;;;;;4367763;32;20140;-71
2021/01/10 04:39:30;;;;;;;69.27;22.47;;;0.70;99.90;;;;;;4366844;32;20462;-72
2021/01/10 04:41:58;;;;;;;67.33;21.33;;;0.80;99.90;;;;;;4367687;32;20136;-72
2021/01/10 04:44:25;;;;;;;70.53;22.50;;;0.70;99.90;;;;;;4365930;32;20140;-75
2021/01/10 04:46:51;;;;;;;67.33;23.30;;;0.70;99.90;;;;;;4367812;32;20147;-74
2021/01/10 04:49:19;;;;;;;70.90;21.90;;;0.70;99.90;;;;;;4366113;32;20138;-71
2021/01/10 04:51:46;;;;;;;68.67;22.73;;;0.70;99.90;;;;;;4366679;32;20136;-71
2021/01/10 04:54:14;;;;;;;70.20;22.80;;;0.70;99.90;;;;;;4365524;32;20177;-71
2021/01/10 04:56:43;;;;;;;65.37;21.77;;;0.60;99.90;;;;;;4367209;32;20171;-72
2021/01/10 04:59:10;;;;;;;67.83;22.63;;;0.60;99.90;;;;;;4367656;32;20157;-71
2021/01/10 05:01:44;;;;;;;64.33;22.10;;;0.60;99.90;;;;;;4365989;32;20132;-71
2021/01/10 05:04:11;;;;;;;63.03;21.40;;;0.60;99.90;;;;;;4366217;32;20147;-71
2021/01/10 05:06:38;;;;;;;69.70;22.07;;;0.60;99.90;;;;;;4367620;32;20188;-71
2021/01/10 05:09:06;;;;;;;72.97;23.77;;;0.60;99.90;;;;;;4365487;32;20136;-71
2021/01/10 05:11:33;;;;;;;68.33;22.47;;;0.50;99.90;;;;;;4365693;32;20143;-71
2021/01/10 05:14:02;;;;;;;66.20;21.97;;;0.50;99.90;;;;;;4365750;32;20171;-72
2021/01/10 05:16:33;;;;;;;72.53;21.93;;;0.60;99.90;;;;;;4365194;32;20254;-71
2021/01/10 05:19:02;;;;;;;68.97;22.27;;;0.60;99.90;;;;;;4365858;32;20190;-71
2021/01/10 05:21:29;;;;;;;66.30;22.00;;;0.60;99.90;;;;;;4365151;32;20393;-70
2021/01/10 05:23:57;;;;;;;68.57;21.67;;;0.70;99.90;;;;;;4367384;32;20144;-70
2021/01/10 05:26:31;;;;;;;74.53;22.60;;;0.70;99.90;;;;;;4367030;32;20137;-71
2021/01/10 05:29:04;;;;;;;64.30;21.40;;;0.80;99.90;;;;;;4365626;32;20135;-71
2021/01/10 05:31:39;;;;;;;77.73;22.07;;;0.90;99.90;;;;;;4365887;32;20148;-70
2021/01/10 05:34:07;;;;;;;74.17;22.03;;;0.80;99.90;;;;;;4365782;32;20159;-70
2021/01/10 05:36:37;;;;;;;67.70;21.97;;;0.80;99.90;;;;;;4366951;32;20351;-71
2021/01/10 05:39:17;;;;;;;70.37;21.70;;;0.80;99.90;;;;;;4366432;32;20175;-71
2021/01/10 05:41:56;;;;;;;69.80;22.23;;;0.80;99.90;;;;;;4366417;32;20166;-70
2021/01/10 05:44:23;;;;;;;73.53;23.20;;;0.70;99.90;;;;;;4366239;32;20132;-71
2021/01/10 05:47:05;;;;;;;67.80;21.13;;;0.70;99.90;;;;;;4364852;32;20442;-70
2021/01/10 05:49:32;;;;;;;66.43;21.40;;;0.70;99.90;;;;;;4366488;32;20521;-70
2021/01/10 05:52:10;;;;;;;68.67;22.00;;;0.70;99.90;;;;;;4365345;32;20139;-71
2021/01/10 05:54:43;;;;;;;77.07;21.63;;;0.60;99.90;;;;;;4366434;32;20482;-70
2021/01/10 05:57:14;;;;;;;72.47;22.00;;;0.60;99.90;;;;;;4366964;32;20247;-70
2021/01/10 05:59:51;;;;;;;65.23;21.63;;;0.60;99.90;;;;;;4366978;32;20167;-70
2021/01/10 06:02:31;;;;;;;65.40;20.97;;;0.70;99.90;;;;;;4366649;32;20152;-70
2021/01/10 06:05:18;;;;;;;69.90;21.83;;;0.70;99.90;;;;;;4365049;32;20475;-69
2021/01/10 06:07:46;;;;;;;71.03;20.47;;;0.70;99.90;;;;;;4365714;32;20408;-70
2021/01/10 06:10:27;;;;;;;74.03;23.07;;;0.70;99.90;;;;;;4365149;32;20470;-70
2021/01/10 06:13:05;;;;;;;70.47;22.00;;;0.70;99.90;;;;;;4366367;32;20164;-69
2021/01/10 06:15:36;;;;;;;78.20;22.47;;;0.70;99.90;;;;;;4364426;32;20144;-69
2021/01/10 06:18:05;;;;;;;75.27;21.63;;;0.60;99.90;;;;;;4366473;32;20489;-69
2021/01/10 06:20:34;;;;;;;72.53;21.63;;;0.70;99.90;;;;;;4366365;32;20224;-72
2021/01/10 06:23:04;;;;;;;62.53;20.70;;;0.70;99.90;;;;;;4365087;32;20144;-68
2021/01/10 06:25:32;;;;;;;64.20;21.73;;;0.70;99.90;;;;;;4364862;32;20239;-68
2021/01/10 06:28:08;;;;;;;74.80;21.60;;;0.70;99.90;;;;;;4365973;32;20133;-68
2021/01/10 06:30:37;;;;;;;67.70;21.27;;;0.70;99.90;;;;;;4364675;32;20155;-69
2021/01/10 06:33:06;;;;;;;66.33;20.80;;;0.70;99.90;;;;;;4365474;32;20167;-70
2021/01/10 06:35:40;;;;;;;71.07;21.83;;;0.70;99.90;;;;;;4364366;32;20215;-70
2021/01/10 06:38:09;;;;;;;70.20;21.03;;;0.70;99.90;;;;;;4365585;32;20360;-69
2021/01/10 06:40:40;;;;;;;65.10;21.40;;;0.70;99.90;;;;;;4364563;32;20186;-69
2021/01/10 06:43:10;;;;;;;67.80;20.73;;;0.70;99.90;;;;;;4364331;32;20205;-70
2021/01/10 06:45:39;;;;;;;70.37;22.50;;;0.80;99.90;;;;;;4365863;32;20149;-69
2021/01/10 06:48:07;;;;;;;64.43;20.07;;;0.70;99.90;;;;;;4365773;32;20211;-68
2021/01/10 06:50:37;;;;;;;62.23;19.67;;;0.80;99.90;;;;;;4364395;32;20135;-70
2021/01/10 06:53:13;;;;;;;61.67;20.33;;;0.80;99.90;;;;;;4364126;32;20179;-69
2021/01/10 06:55:40;;;;;;;59.17;19.47;;;0.80;99.90;;;;;;4364349;32;20199;-69
2021/01/10 06:58:09;;;;;;;60.37;19.83;;;1.00;99.90;;;;;;4365741;32;20194;-68
2021/01/10 07:00:56;;;;;;;64.53;20.33;;;0.90;99.90;;;;;;4363812;32;20132;-69
2021/01/10 07:03:26;;;;;;;57.80;19.33;;;0.90;99.90;;;;;;4364627;32;20148;-68
2021/01/10 07:05:56;;;;;;;59.73;20.50;;;0.80;99.90;;;;;;4364656;32;20247;-69
2021/01/10 07:08:32;;;;;;;58.87;19.63;;;0.90;99.90;;;;;;4364280;32;20159;-69
2021/01/10 07:11:22;;;;;;;58.90;18.67;;;0.90;99.90;;;;;;4365642;32;20377;-68
2021/01/10 07:13:51;;;;;;;57.87;19.67;;;0.80;99.90;;;;;;4355712;33;20259;-70
2021/01/10 07:16:22;;;;;;;50.13;18.40;;;0.90;99.90;;;;;;4365499;32;20139;-70
2021/01/10 07:18:50;;;;;;;53.10;18.50;;;0.90;99.90;;;;;;4365861;32;20382;-70
2021/01/10 07:21:34;;;;;;;57.47;19.53;;;0.90;99.90;;;;;;4365572;32;20160;-70
2021/01/10 07:24:16;;;;;;;52.53;18.27;;;1.00;99.90;;;;;;4364143;32;20183;-70
2021/01/10 07:26:47;;;;;;;50.40;17.57;;;1.00;99.90;;;;;;4365333;32;20162;-71
2021/01/10 07:29:29;;;;;;;53.63;18.77;;;1.10;99.90;;;;;;4364151;32;20144;-70
2021/01/10 07:32:02;;;;;;;50.57;18.17;;;1.20;99.90;;;;;;4365978;32;20136;-70
2021/01/10 07:34:31;;;;;;;41.00;15.30;;;1.30;99.90;;;;;;4363971;32;20454;-69
2021/01/10 07:36:59;;;;;;;49.20;16.93;;;1.20;99.90;;;;;;4365490;33;20229;-70
2021/01/10 07:39:35;;;;;;;49.00;17.63;;;1.30;99.90;;;;;;4365097;33;20467;-69
2021/01/10 07:42:08;;;;;;;52.27;18.57;;;1.10;99.90;;;;;;4364106;33;20132;-70
2021/01/10 07:45:16;;;;;;;52.70;17.50;;;1.00;99.90;;;;;;4365335;33;20162;-70
2021/01/10 07:47:44;;;;;;;48.53;17.23;;;1.00;99.90;;;;;;4365418;32;20199;-69
2021/01/10 07:50:16;;;;;;;49.30;17.80;;;1.00;99.90;;;;;;4367589;32;20421;-70
2021/01/10 07:52:45;;;;;;;49.27;18.70;;;1.10;99.90;;;;;;4366628;32;20157;-70
2021/01/10 07:55:18;;;;;;;47.47;16.37;;;1.10;99.90;;;;;;4367893;32;20171;-69
2021/01/10 07:58:13;;;;;;;47.27;17.23;;;1.20;99.90;;;;;;4366602;33;20450;-71
2021/01/10 08:00:59;;;;;;;50.00;17.20;;;1.20;99.90;;;;;;4368035;32;20136;-68
2021/01/10 08:03:27;;;;;;;41.90;17.20;;;1.20;99.90;;;;;;4368094;32;20185;-70
2021/01/10 08:06:05;;;;;;;48.73;17.57;;;1.00;99.90;;;;;;4367679;32;20251;-70
2021/01/10 08:08:47;;;;;;;43.27;17.07;;;1.10;99.90;;;;;;4368068;32;20183;-70
2021/01/10 08:11:34;;;;;;;47.50;17.33;;;1.20;99.90;;;;;;4367858;32;20194;-70
2021/01/10 08:14:10;;;;;;;52.37;17.37;;;1.20;99.90;;;;;;4366605;32;20234;-70
2021/01/10 08:16:37;;;;;;;47.13;17.23;;;1.30;99.90;;;;;;4368038;32;20189;-70
2021/01/10 08:19:06;;;;;;;53.03;17.40;;;1.30;99.90;;;;;;4367763;32;20187;-70
2021/01/10 08:21:33;;;;;;;46.40;16.97;;;1.30;99.90;;;;;;4366345;32;20140;-70
2021/01/10 08:24:05;;;;;;;48.13;16.20;;;1.30;99.90;;;;;;4367814;32;20450;-70
2021/01/10 08:26:42;;;;;;;44.07;16.70;;;1.30;99.90;;;;;;4366461;32;20167;-71
2021/01/10 08:29:10;;;;;;;47.70;17.43;;;1.30;99.90;;;;;;4367908;32;20164;-70
2021/01/10 08:31:37;;;;;;;40.87;15.60;;;1.40;99.90;;;;;;4367551;32;20185;-70
2021/01/10 08:34:07;;;;;;;42.07;17.17;;;1.40;99.90;;;;;;4366593;32;20227;-70
2021/01/10 08:36:34;;;;;;;40.60;16.57;;;1.40;99.90;;;;;;4367737;32;20144;-71
2021/01/10 08:39:10;;;;;;;45.73;16.83;;;1.40;99.90;;;;;;4367783;32;20170;-71
2021/01/10 08:41:44;;;;;;;42.03;16.53;;;1.30;99.90;;;;;;4367767;32;20135;-70
2021/01/10 08:44:13;;;;;;;42.93;16.27;;;1.40;99.90;;;;;;4367767;32;20199;-71
2021/01/10 08:46:42;;;;;;;41.63;16.10;;;1.30;99.90;;;;;;4367609;32;20136;-71
2021/01/10 08:49:08;;;;;;;48.80;17.53;;;1.20;99.90;;;;;;4367040;32;20194;-71
2021/01/10 08:51:36;;;;;;;45.87;17.00;;;1.10;99.90;;;;;;4366162;32;20148;-70
2021/01/10 08:54:14;;;;;;;47.10;16.77;;;1.00;99.90;;;;;;4366044;32;20194;-70
2021/01/10 08:56:42;;;;;;;45.13;16.60;;;0.90;99.90;;;;;;4367854;32;20198;-70
2021/01/10 08:59:10;;;;;;;44.17;17.27;;;1.00;99.90;;;;;;4366084;32;20376;-70
2021/01/10 09:01:37;;;;;;;44.80;16.97;;;1.20;99.90;;;;;;4366640;32;20186;-70
2021/01/10 09:04:10;;;;;;;48.70;16.87;;;1.30;99.90;;;;;;4365912;32;20160;-70
2021/01/10 09:07:09;;;;;;;45.80;16.77;;;1.20;99.90;;;;;;4367288;32;20143;-70
2021/01/10 09:09:53;;;;;;;41.57;16.43;;;1.20;99.90;;;;;;4365735;32;20183;-70
2021/01/10 09:13:01;;;;;;;43.00;15.97;;;1.20;99.90;;;;;;4366965;32;20144;-71
2021/01/10 09:15:33;;;;;;;43.13;16.20;;;1.20;99.90;;;;;;4366144;32;20166;-70
2021/01/10 09:18:19;;;;;;;44.00;16.13;;;1.10;99.90;;;;;;4365116;32;20313;-71
2021/01/10 09:20:55;;;;;;;45.37;17.17;;;1.20;99.90;;;;;;4367381;32;20159;-71
2021/01/10 09:23:23;;;;;;;50.27;17.70;;;1.30;99.90;;;;;;4365736;32;20465;-70
2021/01/10 09:25:50;;;;;;;43.07;16.43;;;1.40;99.90;;;;;;4365670;32;20182;-71
2021/01/10 09:28:18;;;;;;;45.60;16.60;;;1.40;99.90;;;;;;4365603;32;20184;-71
2021/01/10 09:30:53;;;;;;;44.77;16.63;;;1.30;99.90;;;;;;4367030;32;20243;-70
2021/01/10 09:33:32;;;;;;;43.20;16.83;;;1.30;99.90;;;;;;4365479;32;20148;-71
2021/01/10 09:36:00;;;;;;;42.23;16.10;;;1.40;99.90;;;;;;4366895;32;20385;-71
2021/01/10 09:38:31;;;;;;;40.93;16.00;;;1.40;99.90;;;;;;4365556;32;20137;-71
2021/01/10 09:41:14;;;;;;;39.90;15.63;;;1.40;99.90;;;;;;4365502;32;20203;-71
2021/01/10 09:43:44;;;;;;;46.33;15.77;;;1.30;99.90;;;;;;4366765;32;20222;-70
2021/01/10 09:46:30;;;;;;;40.13;15.53;;;1.40;99.90;;;;;;4365801;32;20213;-72
2021/01/10 09:49:03;;;;;;;41.43;15.50;;;1.30;99.90;;;;;;4364966;32;20207;-71
2021/01/10 09:51:41;;;;;;;43.43;16.77;;;1.40;99.90;;;;;;4366993;32;20492;-71
2021/01/10 09:54:14;;;;;;;38.23;15.63;;;1.50;99.90;;;;;;4365111;32;20171;-71
2021/01/10 09:56:43;;;;;;;42.57;15.87;;;1.60;99.90;;;;;;4365509;32;20178;-71
2021/01/10 09:59:33;;;;;;;42.40;16.40;;;1.60;99.90;;;;;;4365088;32;20163;-71
2021/01/10 10:02:00;;;;;;;43.27;15.23;;;1.50;99.90;;;;;;4365807;32;20190;-71
2021/01/10 10:04:30;;;;;;;44.67;15.80;;;1.50;99.90;;;;;;4364985;32;20183;-72
2021/01/10 10:06:57;;;;;;;39.77;16.40;;;1.60;99.90;;;;;;4365684;32;20136;-72
2021/01/10 10:09:42;;;;;;;43.83;16.77;;;1.50;99.90;;;;;;4365128;32;20132;-72
2021/01/10 10:12:09;;;;;;;50.93;18.50;;;1.50;99.90;;;;;;4364491;32;20186;-71
2021/01/10 10:14:36;;;;;;;52.97;19.47;;;1.50;99.90;;;;;;4364794;32;20145;-71
2021/01/10 10:17:02;;;;;;;51.77;19.70;;;1.50;99.90;;;;;;4366272;32;20135;-72
2021/01/10 10:19:29;;;;;;;56.23;20.70;;;1.50;99.90;;;;;;4366265;32;20158;-72
2021/01/10 10:21:55;;;;;;;59.43;21.60;;;1.50;99.90;;;;;;4365098;32;20143;-72
2021/01/10 10:24:22;;;;;;;55.87;20.40;;;1.40;99.90;;;;;;4366525;32;20132;-72
2021/01/10 10:26:48;;;;;;;59.30;21.50;;;1.50;99.90;;;;;;4366251;32;20135;-72
2021/01/10 10:29:15;;;;;;;62.93;22.07;;;1.40;99.90;;;;;;4364505;32;20202;-71
2021/01/10 10:31:42;;;;;;;55.20;20.67;;;1.40;99.90;;;;;;4364785;32;20378;-71
2021/01/10 10:34:08;;;;;;;58.93;21.43;;;1.40;99.90;;;;;;4364829;32;20148;-71
2021/01/10 10:36:35;;;;;;;59.90;21.30;;;1.40;99.90;;;;;;4366167;32;20139;-72
2021/01/10 10:39:01;;;;;;;59.67;21.27;;;1.40;99.90;;;;;;4364701;32;20218;-72
2021/01/10 10:41:32;;;;;;;52.40;19.80;;;1.40;99.90;;;;;;4365973;32;20187;-72
2021/01/10 10:43:59;;;;;;;59.57;20.80;;;1.30;99.90;;;;;;4364508;32;20227;-71
2021/01/10 10:46:30;;;;;;;58.23;20.93;;;1.30;99.90;;;;;;4365886;32;20139;-71
2021/01/10 10:48:57;;;;;;;51.53;19.70;;;1.40;99.90;;;;;;4365972;32;20416;-71
2021/01/10 10:51:29;;;;;;;53.53;20.30;;;1.50;99.90;;;;;;4365023;32;20171;-72
2021/01/10 10:53:55;;;;;;;54.73;20.13;;;1.50;99.90;;;;;;4364369;32;20480;-72
2021/01/10 10:56:22;;;;;;;47.43;18.63;;;1.40;99.90;;;;;;4364441;32;20162;-72
2021/01/10 10:58:48;;;;;;;51.00;19.27;;;1.40;99.90;;;;;;4364319;32;20170;-72
2021/01/10 11:01:15;;;;;;;46.33;17.10;;;1.40;99.90;;;;;;4363852;32;20167;-72
2021/01/10 11:03:41;;;;;;;47.87;18.03;;;1.30;99.90;;;;;;4364679;32;20203;-72
2021/01/10 11:06:08;;;;;;;47.53;18.07;;;1.30;99.90;;;;;;4364183;32;20162;-71
2021/01/10 11:08:34;;;;;;;41.70;16.73;;;1.20;99.90;;;;;;4365601;32;20212;-72
2021/01/10 11:11:00;;;;;;;43.20;17.47;;;1.30;99.90;;;;;;4364247;32;20205;-72
2021/01/10 11:13:27;;;;;;;47.07;17.63;;;1.20;99.90;;;;;;4363382;32;20178;-72
2021/01/10 11:15:54;;;;;;;47.97;17.93;;;1.20;99.90;;;;;;4364154;32;20141;-72
2021/01/10 11:18:20;;;;;;;44.87;17.60;;;1.20;99.90;;;;;;4365540;32;20182;-71
2021/01/10 11:20:50;;;;;;;56.77;19.90;;;1.20;99.90;;;;;;4365411;32;20145;-70
2021/01/10 11:23:16;;;;;;;61.70;19.40;;;1.10;99.90;;;;;;4363527;32;20175;-72
2021/01/10 11:25:43;;;;;;;60.53;21.57;;;1.00;99.90;;;;;;4364040;32;20151;-71
2021/01/10 11:28:10;;;;;;;64.27;22.67;;;0.90;99.90;;;;;;4364027;32;20514;-72
2021/01/10 11:30:36;;;;;;;67.17;21.80;;;1.00;99.90;;;;;;4362883;32;20179;-71
2021/01/10 11:33:03;;;;;;;73.43;22.03;;;0.90;99.90;;;;;;4363805;32;20152;-71
2021/01/10 11:35:29;;;;;;;70.80;22.93;;;1.00;99.90;;;;;;4364477;32;20203;-72
2021/01/10 11:37:56;;;;;;;69.43;22.27;;;1.00;99.90;;;;;;4365199;33;20132;-71
2021/01/10 11:40:22;;;;;;;67.37;22.57;;;1.00;99.90;;;;;;4365412;33;20147;-70
2021/01/10 11:42:49;;;;;;;76.77;23.33;;;0.90;99.90;;;;;;4364185;33;20232;-71
2021/01/10 11:45:15;;;;;;;71.83;22.77;;;1.00;99.90;;;;;;4365349;33;20439;-72
2021/01/10 11:47:42;;;;;;;91.93;24.87;;;1.00;99.90;;;;;;4363885;33;20133;-72
2021/01/10 11:50:09;;;;;;;94.10;25.97;;;0.90;99.90;;;;;;4363855;33;20128;-72
2021/01/10 11:52:35;;;;;;;80.60;24.13;;;1.00;99.90;;;;;;4363650;33;20199;-72
2021/01/10 11:55:01;;;;;;;85.03;25.87;;;1.00;99.90;;;;;;4365579;33;20223;-74
2021/01/10 11:57:28;;;;;;;80.53;25.03;;;1.10;99.90;;;;;;4363223;33;20140;-72
2021/01/10 11:59:54;;;;;;;83.90;24.97;;;1.00;99.90;;;;;;4365056;33;20207;-71
2021/01/10 12:02:21;;;;;;;86.03;26.00;;;0.90;99.90;;;;;;4365150;33;20200;-72
2021/01/10 12:04:47;;;;;;;95.87;27.00;;;0.90;99.90;;;;;;4363712;33;20132;-71
2021/01/10 12:07:14;;;;;;;80.20;23.97;;;0.90;99.90;;;;;;4365145;33;20203;-71
2021/01/10 12:09:40;;;;;;;81.30;25.50;;;1.00;99.90;;;;;;4364066;33;20675;-72
2021/01/10 12:12:07;;;;;;;81.53;25.50;;;1.10;99.90;;;;;;4363686;33;20132;-71
2021/01/10 12:14:34;;;;;;;86.77;26.07;;;1.10;99.90;;;;;;4363521;33;20144;-73
2021/01/10 12:17:02;;;;;;;79.80;25.27;;;1.10;99.90;;;;;;4349846;33;20172;-71
2021/01/10 12:19:28;;;;;;;86.47;25.07;;;1.20;99.90;;;;;;4363542;33;20158;-70
2021/01/10 12:21:55;;;;;;;84.67;25.27;;;1.20;99.90;;;;;;4364392;33;20195;-71
2021/01/10 12:24:22;;;;;;;86.93;25.37;;;1.20;99.90;;;;;;4363811;33;20140;-71
2021/01/10 12:26:48;;;;;;;89.17;25.00;;;1.00;99.90;;;;;;4364999;33;20158;-72
2021/01/10 12:29:15;;;;;;;87.37;25.73;;;0.90;99.90;;;;;;4365202;33;20461;-72
2021/01/10 12:31:41;;;;;;;84.80;25.63;;;1.00;99.90;;;;;;4363625;33;20221;-73
2021/01/10 12:34:09;;;;;;;83.63;25.93;;;0.90;99.90;;;;;;4362798;32;20194;-73
2021/01/10 12:36:36;;;;;;;85.53;25.50;;;1.10;99.90;;;;;;4367732;32;20136;-73
2021/01/10 12:39:02;;;;;;;91.00;26.43;;;1.10;99.90;;;;;;4365575;32;20136;-72
2021/01/10 12:41:29;;;;;;;86.73;25.87;;;1.00;99.90;;;;;;4365803;32;20148;-73
2021/01/10 12:43:55;;;;;;;82.83;24.37;;;1.10;99.90;;;;;;4364278;32;20156;-73
2021/01/10 12:46:29;;;;;;;84.83;24.93;;;1.00;99.90;;;;;;4364254;32;20427;-73
2021/01/10 12:48:55;;;;;;;84.67;25.73;;;0.90;99.90;;;;;;4365789;32;20243;-74
2021/01/10 12:51:22;;;;;;;91.93;25.60;;;1.00;99.90;;;;;;4365686;32;20171;-71